Lackland Air Force Base (Kelly Field Annex) Airport
KSKF : now visible

Airfield :











YOU CAN JOIN US ON...

 
LOGIN :

Register | Disclaimer

   EN    FR    IT 

 









Legend :    VFR   Marginal VFR   IFR   Intensive IFR   Very Intensive IFR
Visi :
Ceiling :
>= 8 km
>= 3000ft
5 to 8 km
1000 to 3000 ft
1500m to 5 km
500 to 1000 ft
800 to 1500m
200 to 500 ft
< 800m
< 200 ft
Symbols :   Thunderstorms  Fog  Heavy snow  Heavy precipitations  Wind > 20 kt






- Airport Elevation : 691 ft


KSKF - Lackland Air Force Base (Kelly Field Annex)

CURRENT METAR :
  • 090056Z 14017G25KT 10SM FEW070 FEW180 32/22 A3001 RMK AO2A SLP154 T03190217 $

EXPIRED METARs :
  • 082356Z 14018G25KT 10SM SCT070 36/21 A3000 RMK AO2A PK WND 16026/40 SLP150 T03590209 10377 20337 55005 $
  • 082256Z 16008KT 10SM SCT070 37/17 A2999 RMK AO2A SLP147 T03730173 $

TAF AMD TAF KSKF
Valid from the 09 at 00:00 until the 10 at 00:00 UTC


082341Z 0900/0924 15009KT 9999 SCT040 QNH2998INS
TEMPO 0900/0903 14015G25KT VCSH BKN040
BECMG 0908/0909 15007KT 9999 BKN012 QNH3006INS
TEMPO 0910/0914 SCT010
BECMG 0914/0915 17012KT 9999 SCT025 QNH2995INS TX37/0900Z TN25/0910Z
KZHU FIR / North America



MET'MAP, your aeronautical weather chart ! - Copyright ORBIFLY December 2007 - Disclaimer

ORBIFLY MET'MAP TEAM :

Programming & Development : Alexandra Zaïnal
Concept & original design : Baudouin d'Aumeries
Assistance for programming : Marc-Olivier Méhu
Technical & hardware support : Manuel Goepfert

Contact : metmap@orbifly.com




SOURCES & CREDITS :

   NOAA       Earth
Advisory